sensor_id;sensor_type;location;lat;lon;timestamp;P1;durP1;ratioP1;P2;durP2;ratioP2
62268;SDS011;56517;51.634;5.566;2022-10-18T00:00:14;30.90;;;15.80;;
62268;SDS011;56517;51.634;5.566;2022-10-18T00:05:21;34.42;;;16.23;;
62268;SDS011;56517;51.634;5.566;2022-10-18T00:10:23;22.90;;;13.85;;
62268;SDS011;56517;51.634;5.566;2022-10-18T00:15:24;24.33;;;12.85;;
62268;SDS011;56517;51.634;5.566;2022-10-18T00:20:28;29.50;;;14.98;;
62268;SDS011;56517;51.634;5.566;2022-10-18T00:25:32;23.08;;;13.30;;
62268;SDS011;56517;51.634;5.566;2022-10-18T00:30:33;22.20;;;12.63;;
62268;SDS011;56517;51.634;5.566;2022-10-18T00:35:35;21.00;;;12.40;;
62268;SDS011;56517;51.634;5.566;2022-10-18T00:40:35;24.55;;;13.05;;
62268;SDS011;56517;51.634;5.566;2022-10-18T00:45:36;19.25;;;11.75;;
62268;SDS011;56517;51.634;5.566;2022-10-18T00:50:43;18.38;;;12.35;;
62268;SDS011;56517;51.634;5.566;2022-10-18T00:55:43;20.48;;;12.77;;
62268;SDS011;56517;51.634;5.566;2022-10-18T01:00:44;21.00;;;12.77;;
62268;SDS011;56517;51.634;5.566;2022-10-18T01:05:53;19.20;;;12.68;;
62268;SDS011;56517;51.634;5.566;2022-10-18T01:10:59;20.13;;;13.00;;
62268;SDS011;56517;51.634;5.566;2022-10-18T01:16:06;20.58;;;12.40;;
62268;SDS011;56517;51.634;5.566;2022-10-18T01:21:13;22.15;;;13.40;;
62268;SDS011;56517;51.634;5.566;2022-10-18T01:26:19;17.75;;;12.05;;
62268;SDS011;56517;51.634;5.566;2022-10-18T01:31:32;22.90;;;11.85;;
62268;SDS011;56517;51.634;5.566;2022-10-18T01:36:34;22.83;;;12.88;;
62268;SDS011;56517;51.634;5.566;2022-10-18T01:41:37;20.83;;;12.40;;
62268;SDS011;56517;51.634;5.566;2022-10-18T01:46:39;17.05;;;11.65;;
62268;SDS011;56517;51.634;5.566;2022-10-18T01:51:41;19.85;;;12.40;;
62268;SDS011;56517;51.634;5.566;2022-10-18T01:56:41;24.48;;;13.57;;
62268;SDS011;56517;51.634;5.566;2022-10-18T02:01:56;22.13;;;12.52;;
62268;SDS011;56517;51.634;5.566;2022-10-18T02:07:01;23.23;;;12.40;;
62268;SDS011;56517;51.634;5.566;2022-10-18T02:12:05;27.48;;;14.25;;
62268;SDS011;56517;51.634;5.566;2022-10-18T02:17:10;23.45;;;13.93;;
62268;SDS011;56517;51.634;5.566;2022-10-18T02:22:12;23.55;;;13.85;;
62268;SDS011;56517;51.634;5.566;2022-10-18T02:27:14;18.73;;;12.85;;
62268;SDS011;56517;51.634;5.566;2022-10-18T02:32:18;23.63;;;12.75;;
62268;SDS011;56517;51.634;5.566;2022-10-18T02:37:25;21.40;;;11.88;;
62268;SDS011;56517;51.634;5.566;2022-10-18T02:42:32;20.98;;;12.15;;
62268;SDS011;56517;51.634;5.566;2022-10-18T02:47:37;27.17;;;13.10;;
62268;SDS011;56517;51.634;5.566;2022-10-18T02:52:39;22.05;;;13.52;;
62268;SDS011;56517;51.634;5.566;2022-10-18T02:57:40;21.45;;;13.63;;
62268;SDS011;56517;51.634;5.566;2022-10-18T03:02:42;21.65;;;14.13;;
62268;SDS011;56517;51.634;5.566;2022-10-18T03:07:46;25.25;;;12.93;;
62268;SDS011;56517;51.634;5.566;2022-10-18T03:12:47;19.05;;;12.05;;
62268;SDS011;56517;51.634;5.566;2022-10-18T03:17:49;22.45;;;12.15;;
62268;SDS011;56517;51.634;5.566;2022-10-18T03:22:50;21.30;;;12.40;;
62268;SDS011;56517;51.634;5.566;2022-10-18T03:27:50;17.75;;;11.68;;
62268;SDS011;56517;51.634;5.566;2022-10-18T03:32:52;26.38;;;14.05;;
62268;SDS011;56517;51.634;5.566;2022-10-18T03:37:53;24.27;;;13.88;;
62268;SDS011;56517;51.634;5.566;2022-10-18T03:42:53;42.15;;;19.77;;
62268;SDS011;56517;51.634;5.566;2022-10-18T03:47:55;49.35;;;20.95;;
62268;SDS011;56517;51.634;5.566;2022-10-18T03:52:56;57.05;;;21.50;;
62268;SDS011;56517;51.634;5.566;2022-10-18T03:57:57;120.97;;;25.38;;
62268;SDS011;56517;51.634;5.566;2022-10-18T04:02:59;85.00;;;23.42;;
62268;SDS011;56517;51.634;5.566;2022-10-18T04:07:59;59.70;;;22.55;;
62268;SDS011;56517;51.634;5.566;2022-10-18T04:13:00;73.60;;;22.38;;
62268;SDS011;56517;51.634;5.566;2022-10-18T04:18:02;233.70;;;27.65;;
62268;SDS011;56517;51.634;5.566;2022-10-18T04:23:02;59.97;;;21.27;;
62268;SDS011;56517;51.634;5.566;2022-10-18T04:28:03;87.50;;;22.92;;
62268;SDS011;56517;51.634;5.566;2022-10-18T04:33:05;60.90;;;21.42;;
62268;SDS011;56517;51.634;5.566;2022-10-18T04:38:06;57.20;;;21.27;;
62268;SDS011;56517;51.634;5.566;2022-10-18T04:43:06;85.20;;;21.05;;
62268;SDS011;56517;51.634;5.566;2022-10-18T04:48:10;102.05;;;22.42;;
62268;SDS011;56517;51.634;5.566;2022-10-18T04:53:11;149.07;;;25.52;;
62268;SDS011;56517;51.634;5.566;2022-10-18T04:58:11;88.03;;;22.85;;
62268;SDS011;56517;51.634;5.566;2022-10-18T05:03:13;90.43;;;21.80;;
62268;SDS011;56517;51.634;5.566;2022-10-18T05:08:15;70.32;;;21.08;;
62268;SDS011;56517;51.634;5.566;2022-10-18T05:13:15;56.13;;;20.10;;
62268;SDS011;56517;51.634;5.566;2022-10-18T05:18:17;66.43;;;22.00;;
62268;SDS011;56517;51.634;5.566;2022-10-18T05:23:18;55.65;;;20.77;;
62268;SDS011;56517;51.634;5.566;2022-10-18T05:28:19;50.65;;;21.35;;
62268;SDS011;56517;51.634;5.566;2022-10-18T05:33:21;67.28;;;21.55;;
62268;SDS011;56517;51.634;5.566;2022-10-18T05:38:21;81.47;;;21.52;;
62268;SDS011;56517;51.634;5.566;2022-10-18T05:43:25;96.60;;;22.20;;
62268;SDS011;56517;51.634;5.566;2022-10-18T05:48:27;77.57;;;19.65;;
62268;SDS011;56517;51.634;5.566;2022-10-18T05:53:29;60.75;;;20.35;;
62268;SDS011;56517;51.634;5.566;2022-10-18T05:58:29;42.55;;;17.75;;
62268;SDS011;56517;51.634;5.566;2022-10-18T06:03:31;31.55;;;16.95;;
62268;SDS011;56517;51.634;5.566;2022-10-18T06:08:33;40.85;;;17.33;;
62268;SDS011;56517;51.634;5.566;2022-10-18T06:13:34;53.35;;;16.85;;
62268;SDS011;56517;51.634;5.566;2022-10-18T06:18:36;60.63;;;16.88;;
62268;SDS011;56517;51.634;5.566;2022-10-18T06:23:37;48.25;;;15.80;;
62268;SDS011;56517;51.634;5.566;2022-10-18T06:28:37;59.55;;;17.80;;
62268;SDS011;56517;51.634;5.566;2022-10-18T06:33:39;56.58;;;17.55;;
62268;SDS011;56517;51.634;5.566;2022-10-18T06:38:40;69.18;;;17.40;;
62268;SDS011;56517;51.634;5.566;2022-10-18T06:43:41;60.25;;;15.52;;
62268;SDS011;56517;51.634;5.566;2022-10-18T06:48:42;48.25;;;16.38;;
62268;SDS011;56517;51.634;5.566;2022-10-18T06:53:43;81.88;;;16.77;;
62268;SDS011;56517;51.634;5.566;2022-10-18T06:58:44;99.82;;;18.73;;
62268;SDS011;56517;51.634;5.566;2022-10-18T07:03:46;74.95;;;17.13;;
62268;SDS011;56517;51.634;5.566;2022-10-18T07:08:47;74.72;;;16.08;;
62268;SDS011;56517;51.634;5.566;2022-10-18T07:13:54;61.53;;;16.58;;
62268;SDS011;56517;51.634;5.566;2022-10-18T07:19:01;47.25;;;14.30;;
62268;SDS011;56517;51.634;5.566;2022-10-18T07:24:02;59.28;;;15.68;;
62268;SDS011;56517;51.634;5.566;2022-10-18T07:29:06;37.40;;;14.70;;
62268;SDS011;56517;51.634;5.566;2022-10-18T07:34:09;24.48;;;13.77;;
62268;SDS011;56517;51.634;5.566;2022-10-18T07:39:10;38.33;;;14.60;;
62268;SDS011;56517;51.634;5.566;2022-10-18T07:44:11;33.55;;;13.52;;
62268;SDS011;56517;51.634;5.566;2022-10-18T07:49:13;25.55;;;14.02;;
62268;SDS011;56517;51.634;5.566;2022-10-18T07:54:13;30.38;;;13.88;;
62268;SDS011;56517;51.634;5.566;2022-10-18T07:59:14;33.55;;;14.45;;
62268;SDS011;56517;51.634;5.566;2022-10-18T08:04:16;32.35;;;15.75;;
62268;SDS011;56517;51.634;5.566;2022-10-18T08:09:16;23.38;;;14.32;;
62268;SDS011;56517;51.634;5.566;2022-10-18T08:14:17;30.50;;;14.52;;
62268;SDS011;56517;51.634;5.566;2022-10-18T08:19:19;34.53;;;16.13;;
62268;SDS011;56517;51.634;5.566;2022-10-18T08:24:20;35.97;;;16.40;;
62268;SDS011;56517;51.634;5.566;2022-10-18T08:29:21;30.90;;;16.05;;
62268;SDS011;56517;51.634;5.566;2022-10-18T08:34:23;30.63;;;15.57;;
62268;SDS011;56517;51.634;5.566;2022-10-18T08:39:23;30.95;;;16.45;;
62268;SDS011;56517;51.634;5.566;2022-10-18T08:44:24;30.38;;;15.30;;
62268;SDS011;56517;51.634;5.566;2022-10-18T08:49:28;29.27;;;17.30;;
62268;SDS011;56517;51.634;5.566;2022-10-18T08:54:33;28.73;;;13.65;;
62268;SDS011;56517;51.634;5.566;2022-10-18T08:59:36;25.42;;;14.07;;
62268;SDS011;56517;51.634;5.566;2022-10-18T09:04:42;24.38;;;10.43;;
62268;SDS011;56517;51.634;5.566;2022-10-18T09:09:44;21.40;;;11.50;;
62268;SDS011;56517;51.634;5.566;2022-10-18T09:14:53;17.75;;;10.48;;
62268;SDS011;56517;51.634;5.566;2022-10-18T09:20:02;14.05;;;9.20;;
62268;SDS011;56517;51.634;5.566;2022-10-18T09:25:09;15.10;;;9.18;;
62268;SDS011;56517;51.634;5.566;2022-10-18T09:30:13;17.60;;;9.32;;
62268;SDS011;56517;51.634;5.566;2022-10-18T09:35:17;15.90;;;8.25;;
62268;SDS011;56517;51.634;5.566;2022-10-18T09:40:20;16.02;;;9.18;;
62268;SDS011;56517;51.634;5.566;2022-10-18T09:45:24;14.27;;;8.07;;
62268;SDS011;56517;51.634;5.566;2022-10-18T09:50:28;14.95;;;8.50;;
62268;SDS011;56517;51.634;5.566;2022-10-18T09:55:30;13.43;;;6.82;;
62268;SDS011;56517;51.634;5.566;2022-10-18T10:00:33;16.08;;;6.55;;
62268;SDS011;56517;51.634;5.566;2022-10-18T10:05:37;9.18;;;5.70;;
62268;SDS011;56517;51.634;5.566;2022-10-18T10:10:38;10.57;;;5.65;;
62268;SDS011;56517;51.634;5.566;2022-10-18T10:15:39;10.73;;;4.75;;
62268;SDS011;56517;51.634;5.566;2022-10-18T10:20:46;9.75;;;5.72;;
62268;SDS011;56517;51.634;5.566;2022-10-18T10:25:49;10.75;;;5.38;;
62268;SDS011;56517;51.634;5.566;2022-10-18T10:30:51;12.82;;;4.88;;
62268;SDS011;56517;51.634;5.566;2022-10-18T10:35:54;14.32;;;4.78;;
62268;SDS011;56517;51.634;5.566;2022-10-18T10:40:57;8.85;;;4.78;;
62268;SDS011;56517;51.634;5.566;2022-10-18T10:45:59;9.13;;;5.78;;
62268;SDS011;56517;51.634;5.566;2022-10-18T10:51:02;8.55;;;4.65;;
62268;SDS011;56517;51.634;5.566;2022-10-18T10:56:03;6.80;;;4.05;;
62268;SDS011;56517;51.634;5.566;2022-10-18T11:01:19;12.02;;;5.20;;
62268;SDS011;56517;51.634;5.566;2022-10-18T11:06:36;12.75;;;5.47;;
62268;SDS011;56517;51.634;5.566;2022-10-18T11:11:38;14.57;;;6.72;;
62268;SDS011;56517;51.634;5.566;2022-10-18T11:16:41;15.13;;;6.20;;
62268;SDS011;56517;51.634;5.566;2022-10-18T11:21:52;12.07;;;5.63;;
62268;SDS011;56517;51.634;5.566;2022-10-18T11:26:54;10.75;;;5.18;;
62268;SDS011;56517;51.634;5.566;2022-10-18T11:32:02;13.38;;;5.40;;
62268;SDS011;56517;51.634;5.566;2022-10-18T11:37:08;11.10;;;5.30;;
62268;SDS011;56517;51.634;5.566;2022-10-18T11:42:14;10.73;;;4.35;;
62268;SDS011;56517;51.634;5.566;2022-10-18T11:47:17;15.10;;;4.90;;
62268;SDS011;56517;51.634;5.566;2022-10-18T11:52:24;9.88;;;4.80;;
62268;SDS011;56517;51.634;5.566;2022-10-18T11:57:36;13.90;;;4.93;;
62268;SDS011;56517;51.634;5.566;2022-10-18T12:02:43;13.68;;;5.80;;
62268;SDS011;56517;51.634;5.566;2022-10-18T12:07:50;12.27;;;4.47;;
62268;SDS011;56517;51.634;5.566;2022-10-18T12:12:53;8.60;;;3.42;;
62268;SDS011;56517;51.634;5.566;2022-10-18T12:17:56;13.38;;;4.03;;
62268;SDS011;56517;51.634;5.566;2022-10-18T12:23:00;12.70;;;3.80;;
62268;SDS011;56517;51.634;5.566;2022-10-18T12:28:04;12.70;;;4.22;;
62268;SDS011;56517;51.634;5.566;2022-10-18T12:33:07;10.48;;;3.42;;
62268;SDS011;56517;51.634;5.566;2022-10-18T12:38:13;12.80;;;4.07;;
62268;SDS011;56517;51.634;5.566;2022-10-18T12:43:17;9.65;;;3.85;;
62268;SDS011;56517;51.634;5.566;2022-10-18T12:48:31;10.98;;;4.32;;
62268;SDS011;56517;51.634;5.566;2022-10-18T12:53:34;12.68;;;3.78;;
62268;SDS011;56517;51.634;5.566;2022-10-18T12:58:34;8.88;;;4.43;;
62268;SDS011;56517;51.634;5.566;2022-10-18T13:09:14;10.82;;;4.43;;
62268;SDS011;56517;51.634;5.566;2022-10-18T13:19:32;7.90;;;3.60;;
62268;SDS011;56517;51.634;5.566;2022-10-18T13:24:38;10.02;;;3.92;;
62268;SDS011;56517;51.634;5.566;2022-10-18T13:29:54;10.40;;;3.72;;
62268;SDS011;56517;51.634;5.566;2022-10-18T13:34:56;7.78;;;3.30;;
62268;SDS011;56517;51.634;5.566;2022-10-18T13:40:22;11.70;;;4.60;;
62268;SDS011;56517;51.634;5.566;2022-10-18T13:45:42;10.73;;;3.85;;
62268;SDS011;56517;51.634;5.566;2022-10-18T13:50:43;8.18;;;3.60;;
62268;SDS011;56517;51.634;5.566;2022-10-18T13:55:50;9.50;;;3.80;;
62268;SDS011;56517;51.634;5.566;2022-10-18T14:00:54;8.90;;;3.38;;
62268;SDS011;56517;51.634;5.566;2022-10-18T14:05:56;7.20;;;3.30;;
62268;SDS011;56517;51.634;5.566;2022-10-18T14:11:02;10.55;;;3.25;;
62268;SDS011;56517;51.634;5.566;2022-10-18T14:16:05;6.57;;;2.70;;
62268;SDS011;56517;51.634;5.566;2022-10-18T14:21:06;8.00;;;3.13;;
62268;SDS011;56517;51.634;5.566;2022-10-18T14:26:13;8.77;;;2.95;;
62268;SDS011;56517;51.634;5.566;2022-10-18T14:31:14;8.95;;;3.22;;
62268;SDS011;56517;51.634;5.566;2022-10-18T14:36:21;10.45;;;3.78;;
62268;SDS011;56517;51.634;5.566;2022-10-18T14:41:23;6.75;;;3.15;;
62268;SDS011;56517;51.634;5.566;2022-10-18T14:46:25;9.60;;;2.88;;
62268;SDS011;56517;51.634;5.566;2022-10-18T14:51:26;7.55;;;3.50;;
62268;SDS011;56517;51.634;5.566;2022-10-18T14:56:29;8.25;;;3.13;;
62268;SDS011;56517;51.634;5.566;2022-10-18T15:01:30;6.93;;;2.83;;
62268;SDS011;56517;51.634;5.566;2022-10-18T15:06:31;8.05;;;2.63;;
62268;SDS011;56517;51.634;5.566;2022-10-18T15:11:33;10.30;;;3.58;;
62268;SDS011;56517;51.634;5.566;2022-10-18T15:16:34;9.40;;;2.80;;
62268;SDS011;56517;51.634;5.566;2022-10-18T15:21:36;7.35;;;2.85;;
62268;SDS011;56517;51.634;5.566;2022-10-18T15:26:40;8.63;;;3.03;;
62268;SDS011;56517;51.634;5.566;2022-10-18T15:31:42;9.80;;;4.03;;
62268;SDS011;56517;51.634;5.566;2022-10-18T15:36:43;9.63;;;3.30;;
62268;SDS011;56517;51.634;5.566;2022-10-18T15:41:46;6.85;;;2.72;;
62268;SDS011;56517;51.634;5.566;2022-10-18T15:46:47;7.97;;;3.15;;
62268;SDS011;56517;51.634;5.566;2022-10-18T15:51:48;6.82;;;3.03;;
62268;SDS011;56517;51.634;5.566;2022-10-18T15:56:51;9.57;;;3.67;;
62268;SDS011;56517;51.634;5.566;2022-10-18T16:01:51;13.98;;;3.50;;
62268;SDS011;56517;51.634;5.566;2022-10-18T16:06:53;11.73;;;4.05;;
62268;SDS011;56517;51.634;5.566;2022-10-18T16:11:55;13.27;;;3.65;;
62268;SDS011;56517;51.634;5.566;2022-10-18T16:16:57;10.65;;;3.85;;
62268;SDS011;56517;51.634;5.566;2022-10-18T16:21:58;7.97;;;3.47;;
62268;SDS011;56517;51.634;5.566;2022-10-18T16:27:00;7.10;;;3.30;;
62268;SDS011;56517;51.634;5.566;2022-10-18T16:32:00;8.02;;;3.95;;
62268;SDS011;56517;51.634;5.566;2022-10-18T16:37:01;12.52;;;3.50;;
62268;SDS011;56517;51.634;5.566;2022-10-18T16:42:03;8.95;;;3.60;;
62268;SDS011;56517;51.634;5.566;2022-10-18T16:47:03;6.68;;;3.88;;
62268;SDS011;56517;51.634;5.566;2022-10-18T16:52:04;11.48;;;4.30;;
62268;SDS011;56517;51.634;5.566;2022-10-18T16:57:06;14.02;;;4.22;;
62268;SDS011;56517;51.634;5.566;2022-10-18T17:02:07;8.85;;;3.97;;
62268;SDS011;56517;51.634;5.566;2022-10-18T17:07:23;7.93;;;3.25;;
62268;SDS011;56517;51.634;5.566;2022-10-18T17:12:25;8.45;;;4.20;;
62268;SDS011;56517;51.634;5.566;2022-10-18T17:17:25;8.07;;;3.40;;
62268;SDS011;56517;51.634;5.566;2022-10-18T17:22:26;6.90;;;3.63;;
62268;SDS011;56517;51.634;5.566;2022-10-18T17:27:28;6.75;;;3.22;;
62268;SDS011;56517;51.634;5.566;2022-10-18T17:32:28;7.13;;;3.85;;
62268;SDS011;56517;51.634;5.566;2022-10-18T17:37:29;8.43;;;3.75;;
62268;SDS011;56517;51.634;5.566;2022-10-18T17:42:31;8.55;;;3.97;;
62268;SDS011;56517;51.634;5.566;2022-10-18T17:47:31;7.70;;;3.92;;
62268;SDS011;56517;51.634;5.566;2022-10-18T17:52:32;8.80;;;4.32;;
62268;SDS011;56517;51.634;5.566;2022-10-18T17:57:34;11.55;;;4.78;;
62268;SDS011;56517;51.634;5.566;2022-10-18T18:02:34;10.18;;;5.07;;
62268;SDS011;56517;51.634;5.566;2022-10-18T18:07:35;8.90;;;4.32;;
62268;SDS011;56517;51.634;5.566;2022-10-18T18:12:37;9.88;;;5.13;;
62268;SDS011;56517;51.634;5.566;2022-10-18T18:17:38;10.45;;;5.80;;
62268;SDS011;56517;51.634;5.566;2022-10-18T18:22:38;14.80;;;5.75;;
62268;SDS011;56517;51.634;5.566;2022-10-18T18:27:40;10.23;;;5.78;;
62268;SDS011;56517;51.634;5.566;2022-10-18T18:32:41;11.23;;;5.40;;
62268;SDS011;56517;51.634;5.566;2022-10-18T18:37:41;12.10;;;6.28;;
62268;SDS011;56517;51.634;5.566;2022-10-18T18:42:43;7.82;;;5.32;;
62268;SDS011;56517;51.634;5.566;2022-10-18T18:47:44;12.18;;;5.90;;
62268;SDS011;56517;51.634;5.566;2022-10-18T18:52:45;9.57;;;5.85;;
62268;SDS011;56517;51.634;5.566;2022-10-18T18:57:47;9.07;;;5.95;;
62268;SDS011;56517;51.634;5.566;2022-10-18T19:02:48;10.43;;;5.80;;
62268;SDS011;56517;51.634;5.566;2022-10-18T19:07:49;11.98;;;6.30;;
62268;SDS011;56517;51.634;5.566;2022-10-18T19:12:51;11.23;;;6.10;;
62268;SDS011;56517;51.634;5.566;2022-10-18T19:17:51;16.88;;;6.43;;
62268;SDS011;56517;51.634;5.566;2022-10-18T19:22:52;12.00;;;6.03;;
62268;SDS011;56517;51.634;5.566;2022-10-18T19:27:54;9.38;;;6.28;;
62268;SDS011;56517;51.634;5.566;2022-10-18T19:32:54;14.10;;;6.15;;
62268;SDS011;56517;51.634;5.566;2022-10-18T19:37:55;16.73;;;7.30;;
62268;SDS011;56517;51.634;5.566;2022-10-18T19:42:57;14.13;;;7.55;;
62268;SDS011;56517;51.634;5.566;2022-10-18T19:47:57;14.07;;;7.18;;
62268;SDS011;56517;51.634;5.566;2022-10-18T19:52:59;11.27;;;6.20;;
62268;SDS011;56517;51.634;5.566;2022-10-18T19:58:01;8.63;;;5.93;;
62268;SDS011;56517;51.634;5.566;2022-10-18T20:03:01;11.43;;;6.00;;
62268;SDS011;56517;51.634;5.566;2022-10-18T20:08:02;12.63;;;7.22;;
62268;SDS011;56517;51.634;5.566;2022-10-18T20:13:04;16.95;;;6.93;;
62268;SDS011;56517;51.634;5.566;2022-10-18T20:18:04;14.10;;;5.95;;
62268;SDS011;56517;51.634;5.566;2022-10-18T20:23:05;16.63;;;6.28;;
62268;SDS011;56517;51.634;5.566;2022-10-18T20:28:07;10.10;;;6.43;;
62268;SDS011;56517;51.634;5.566;2022-10-18T20:33:07;12.02;;;6.80;;
62268;SDS011;56517;51.634;5.566;2022-10-18T20:38:08;12.57;;;6.75;;
62268;SDS011;56517;51.634;5.566;2022-10-18T20:43:10;10.48;;;6.25;;
62268;SDS011;56517;51.634;5.566;2022-10-18T20:48:10;14.50;;;7.45;;
62268;SDS011;56517;51.634;5.566;2022-10-18T20:53:11;12.88;;;6.85;;
62268;SDS011;56517;51.634;5.566;2022-10-18T20:58:13;13.60;;;7.07;;
62268;SDS011;56517;51.634;5.566;2022-10-18T21:03:14;13.80;;;7.10;;
62268;SDS011;56517;51.634;5.566;2022-10-18T21:08:15;11.55;;;6.97;;
62268;SDS011;56517;51.634;5.566;2022-10-18T21:13:16;13.55;;;7.63;;
62268;SDS011;56517;51.634;5.566;2022-10-18T21:18:17;15.13;;;7.30;;
62268;SDS011;56517;51.634;5.566;2022-10-18T21:23:18;8.75;;;7.32;;
62268;SDS011;56517;51.634;5.566;2022-10-18T21:28:20;15.73;;;7.45;;
62268;SDS011;56517;51.634;5.566;2022-10-18T21:33:20;13.98;;;9.95;;
62268;SDS011;56517;51.634;5.566;2022-10-18T21:38:21;12.85;;;8.60;;
62268;SDS011;56517;51.634;5.566;2022-10-18T21:43:23;14.93;;;8.00;;
62268;SDS011;56517;51.634;5.566;2022-10-18T21:48:23;11.00;;;7.55;;
62268;SDS011;56517;51.634;5.566;2022-10-18T21:53:24;11.25;;;7.57;;
62268;SDS011;56517;51.634;5.566;2022-10-18T21:58:26;17.75;;;7.93;;
62268;SDS011;56517;51.634;5.566;2022-10-18T22:03:26;13.50;;;7.72;;
62268;SDS011;56517;51.634;5.566;2022-10-18T22:08:27;13.68;;;8.57;;
62268;SDS011;56517;51.634;5.566;2022-10-18T22:13:29;18.60;;;7.85;;
62268;SDS011;56517;51.634;5.566;2022-10-18T22:18:30;8.70;;;6.88;;
62268;SDS011;56517;51.634;5.566;2022-10-18T22:23:30;11.73;;;6.95;;
62268;SDS011;56517;51.634;5.566;2022-10-18T22:28:35;15.35;;;7.45;;
62268;SDS011;56517;51.634;5.566;2022-10-18T22:33:36;9.32;;;7.15;;
62268;SDS011;56517;51.634;5.566;2022-10-18T22:38:37;11.23;;;7.47;;
62268;SDS011;56517;51.634;5.566;2022-10-18T22:43:39;11.40;;;6.85;;
62268;SDS011;56517;51.634;5.566;2022-10-18T22:48:40;12.95;;;7.45;;
62268;SDS011;56517;51.634;5.566;2022-10-18T22:53:41;11.27;;;7.20;;
62268;SDS011;56517;51.634;5.566;2022-10-18T22:58:43;13.25;;;7.45;;
62268;SDS011;56517;51.634;5.566;2022-10-18T23:03:43;19.45;;;9.55;;
62268;SDS011;56517;51.634;5.566;2022-10-18T23:08:44;12.27;;;7.50;;
62268;SDS011;56517;51.634;5.566;2022-10-18T23:13:46;10.38;;;6.88;;
62268;SDS011;56517;51.634;5.566;2022-10-18T23:18:47;9.30;;;7.45;;
62268;SDS011;56517;51.634;5.566;2022-10-18T23:23:48;8.50;;;7.30;;
62268;SDS011;56517;51.634;5.566;2022-10-18T23:28:50;11.07;;;7.47;;
62268;SDS011;56517;51.634;5.566;2022-10-18T23:33:52;11.35;;;7.63;;
62268;SDS011;56517;51.634;5.566;2022-10-18T23:38:53;10.32;;;7.43;;
62268;SDS011;56517;51.634;5.566;2022-10-18T23:43:55;8.15;;;6.70;;
62268;SDS011;56517;51.634;5.566;2022-10-18T23:48:55;14.57;;;7.60;;
62268;SDS011;56517;51.634;5.566;2022-10-18T23:53:56;11.38;;;6.72;;
62268;SDS011;56517;51.634;5.566;2022-10-18T23:58:58;7.80;;;6.93;;
